createdAt,value
2018-10-05T00:00:40.505Z,13.47
2018-10-05T00:03:08.924Z,13.27
2018-10-05T00:05:37.080Z,13.65
2018-10-05T00:08:05.195Z,10.30
2018-10-05T00:10:33.299Z,15.00
2018-10-05T00:13:01.396Z,10.10
2018-10-05T00:15:29.676Z,18.07
2018-10-05T00:17:57.955Z,10.77
2018-10-05T00:20:26.064Z,11.77
2018-10-05T00:22:54.178Z,15.10
2018-10-05T00:25:22.280Z,12.50
2018-10-05T00:27:50.439Z,12.93
2018-10-05T00:30:18.573Z,10.93
2018-10-05T00:32:46.691Z,11.43
2018-10-05T00:35:14.759Z,15.37
2018-10-05T00:37:43.310Z,13.45
2018-10-05T00:40:11.505Z,11.00
2018-10-05T00:42:39.683Z,13.77
2018-10-05T00:45:07.824Z,13.25
2018-10-05T00:47:36.238Z,15.13
2018-10-05T00:50:04.405Z,11.27
2018-10-05T00:52:32.527Z,18.67
2018-10-05T00:55:01.273Z,12.00
2018-10-05T00:57:29.368Z,11.10
2018-10-05T00:59:57.511Z,12.27
2018-10-05T01:02:25.605Z,9.80
2018-10-05T01:04:53.708Z,12.00
2018-10-05T01:07:21.903Z,12.90
2018-10-05T01:09:50.667Z,10.23
2018-10-05T01:12:18.790Z,10.38
2018-10-05T01:14:46.876Z,11.53
2018-10-05T01:17:15.418Z,10.00
2018-10-05T01:19:43.514Z,10.70
2018-10-05T01:22:11.697Z,12.10
2018-10-05T01:24:40.019Z,12.53
2018-10-05T01:27:08.162Z,10.77
2018-10-05T01:29:36.244Z,10.08
2018-10-05T01:32:04.428Z,11.63
2018-10-05T01:34:32.549Z,10.97
2018-10-05T01:37:00.751Z,10.57
2018-10-05T01:39:29.249Z,11.28
2018-10-05T01:41:57.652Z,14.50
2018-10-05T01:44:25.732Z,17.17
2018-10-05T01:46:53.852Z,12.60
2018-10-05T01:49:21.967Z,16.50
2018-10-05T01:51:50.207Z,15.38
2018-10-05T01:54:18.308Z,11.60
2018-10-05T01:56:46.438Z,13.40
2018-10-05T01:59:14.554Z,12.33
2018-10-05T02:01:43.275Z,14.05
2018-10-05T02:04:12.207Z,10.70
2018-10-05T02:06:40.553Z,12.03
2018-10-05T02:09:08.682Z,13.97
2018-10-05T02:11:36.823Z,17.23
2018-10-05T02:14:04.908Z,15.93
2018-10-05T02:16:33.003Z,14.27
2018-10-05T02:19:01.776Z,12.73
2018-10-05T02:21:30.424Z,12.57
2018-10-05T02:23:58.564Z,14.23
2018-10-05T02:26:26.715Z,13.30
2018-10-05T02:28:54.795Z,14.40
2018-10-05T02:31:22.908Z,14.07
2018-10-05T02:33:51.127Z,12.90
2018-10-05T02:36:19.199Z,13.07
2018-10-05T02:38:47.851Z,13.43
2018-10-05T02:41:15.961Z,13.95
2018-10-05T02:43:44.078Z,13.80
2018-10-05T02:46:12.240Z,14.87
2018-10-05T02:48:40.370Z,15.27
2018-10-05T02:51:08.456Z,11.37
2018-10-05T02:53:36.879Z,14.53
2018-10-05T02:56:04.992Z,15.10
2018-10-05T02:58:33.143Z,14.00
2018-10-05T03:01:12.748Z,14.53
2018-10-05T03:03:41.023Z,10.13
2018-10-05T03:06:09.162Z,12.50
2018-10-05T03:08:37.263Z,13.43
2018-10-05T03:11:05.804Z,17.23
2018-10-05T03:13:33.995Z,16.90
2018-10-05T03:16:02.139Z,17.83
2018-10-05T03:18:30.239Z,14.07
2018-10-05T03:20:58.344Z,18.37
2018-10-05T03:23:26.441Z,17.30
2018-10-05T03:25:54.574Z,13.18
2018-10-05T03:28:22.665Z,14.40
2018-10-05T03:30:50.943Z,12.43
2018-10-05T03:33:19.030Z,14.13
2018-10-05T03:35:47.107Z,14.53
2018-10-05T03:38:15.251Z,17.67
2018-10-05T03:40:43.388Z,13.90
2018-10-05T03:43:12.024Z,16.23
2018-10-05T03:45:40.765Z,18.53
2018-10-05T03:48:08.892Z,15.88
2018-10-05T03:50:37.940Z,18.50
2018-10-05T03:53:06.644Z,17.33
2018-10-05T03:55:34.732Z,14.00
2018-10-05T03:58:02.824Z,14.80
2018-10-05T04:00:31.485Z,13.67
2018-10-05T04:03:01.477Z,12.87
2018-10-05T04:05:29.639Z,14.10
2018-10-05T04:07:57.886Z,14.03
2018-10-05T04:10:26.009Z,11.28
2018-10-05T04:12:54.104Z,12.55
2018-10-05T04:15:22.443Z,9.93
2018-10-05T04:17:50.684Z,14.47
2018-10-05T04:20:19.012Z,16.70
2018-10-05T04:22:47.168Z,9.68
2018-10-05T04:25:15.290Z,13.47
2018-10-05T04:27:43.363Z,10.97
2018-10-05T04:30:11.491Z,12.57
2018-10-05T04:32:40.215Z,12.83
2018-10-05T04:35:08.328Z,13.40
2018-10-05T04:37:36.463Z,14.47
2018-10-05T04:40:04.580Z,17.77
2018-10-05T04:42:33.122Z,18.00
2018-10-05T04:45:01.712Z,19.00
2018-10-05T04:47:30.163Z,16.97
2018-10-05T04:49:58.257Z,17.37
2018-10-05T04:52:26.436Z,18.50
2018-10-05T04:54:54.522Z,23.60
2018-10-05T04:57:22.631Z,18.13
2018-10-05T04:59:50.928Z,14.97
2018-10-05T05:02:19.011Z,15.87
2018-10-05T05:04:47.131Z,14.33
2018-10-05T05:07:15.280Z,17.63
2018-10-05T05:09:43.373Z,10.90
2018-10-05T05:12:11.585Z,12.00
2018-10-05T05:14:39.999Z,19.33
2018-10-05T05:17:08.140Z,14.28
2018-10-05T05:19:36.249Z,15.07
2018-10-05T05:22:25.704Z,13.83
2018-10-05T05:25:07.001Z,13.40
2018-10-05T05:27:36.581Z,11.40
2018-10-05T05:30:04.907Z,11.93
2018-10-05T05:32:33.001Z,13.20
2018-10-05T05:35:01.524Z,16.93
2018-10-05T05:37:30.013Z,22.27
2018-10-05T05:39:58.130Z,15.95
2018-10-05T05:42:26.295Z,20.70
2018-10-05T05:44:54.388Z,27.83
2018-10-05T05:47:22.496Z,28.33
2018-10-05T05:49:51.064Z,39.77
2018-10-05T05:52:19.310Z,52.07
2018-10-05T05:54:48.556Z,49.60
2018-10-05T05:57:16.669Z,107.33
2018-10-05T05:59:44.760Z,51.42
2018-10-05T06:02:12.852Z,159.40
2018-10-05T06:04:41.030Z,132.50
2018-10-05T06:07:09.283Z,69.57
2018-10-05T06:09:37.379Z,133.30
2018-10-05T06:12:05.468Z,130.33
2018-10-05T06:14:33.539Z,121.93
2018-10-05T06:17:01.621Z,119.72
2018-10-05T06:19:30.013Z,134.33
2018-10-05T06:21:58.310Z,83.37
2018-10-05T06:24:26.224Z,145.53
2018-10-05T06:26:54.339Z,80.03
2018-10-05T06:29:22.427Z,55.37
2018-10-05T06:31:50.583Z,39.87
2018-10-05T06:34:18.746Z,46.00
2018-10-05T06:36:46.900Z,23.20
2018-10-05T06:39:15.122Z,33.53
2018-10-05T06:41:43.140Z,13.50
2018-10-05T06:44:12.284Z,16.63
2018-10-05T06:46:40.433Z,11.30
2018-10-05T06:49:08.519Z,9.90
2018-10-05T06:51:36.628Z,9.98
2018-10-05T06:54:04.728Z,13.10
2018-10-05T06:56:32.836Z,11.77
2018-10-05T06:59:00.978Z,13.43
2018-10-05T07:01:29.281Z,12.87
2018-10-05T07:03:57.343Z,12.67
2018-10-05T07:06:25.437Z,11.40
2018-10-05T07:08:53.560Z,12.67
2018-10-05T07:11:21.733Z,12.73
2018-10-05T07:13:49.767Z,14.65
2018-10-05T07:16:17.960Z,17.47
2018-10-05T07:18:46.354Z,15.67
2018-10-05T07:21:14.444Z,13.67
2018-10-05T07:23:42.513Z,15.30
2018-10-05T07:26:10.595Z,11.80
2018-10-05T07:28:38.843Z,9.60
2018-10-05T07:31:07.141Z,10.40
2018-10-05T07:33:35.224Z,10.17
2018-10-05T07:36:03.361Z,10.20
2018-10-05T07:38:31.487Z,10.00
2018-10-05T07:41:00.402Z,11.17
2018-10-05T07:43:29.497Z,8.80
2018-10-05T07:45:58.267Z,8.73
2018-10-05T07:48:27.023Z,10.50
2018-10-05T07:50:55.075Z,13.77
2018-10-05T07:53:23.167Z,10.25
2018-10-05T07:55:51.879Z,7.67
2018-10-05T07:58:19.988Z,9.80
2018-10-05T08:00:49.011Z,11.57
2018-10-05T08:03:18.900Z,10.57
2018-10-05T08:05:47.496Z,8.83
2018-10-05T08:08:17.623Z,8.60
2018-10-05T08:10:45.716Z,10.47
2018-10-05T08:13:13.826Z,9.83
2018-10-05T08:15:41.926Z,13.75
2018-10-05T08:18:10.011Z,10.93
2018-10-05T08:20:38.396Z,11.27
2018-10-05T08:23:07.329Z,7.87
2018-10-05T08:25:35.532Z,8.00
2018-10-05T08:28:03.652Z,9.67
2018-10-05T08:30:31.743Z,10.10
2018-10-05T08:33:05.608Z,10.77
2018-10-05T08:35:33.683Z,12.13
2018-10-05T08:38:01.763Z,9.73
2018-10-05T08:40:29.843Z,8.67
2018-10-05T08:42:57.967Z,8.33
2018-10-05T08:45:26.044Z,9.60
2018-10-05T08:47:54.143Z,8.75
2018-10-05T08:50:22.208Z,9.93
2018-10-05T08:52:52.117Z,10.70
2018-10-05T08:55:20.220Z,13.10
2018-10-05T08:57:48.887Z,11.20
2018-10-05T09:00:16.997Z,12.80
2018-10-05T09:02:45.056Z,15.47
2018-10-05T09:05:13.259Z,11.20
2018-10-05T09:07:41.413Z,10.83
2018-10-05T09:10:09.504Z,14.63
2018-10-05T09:12:37.943Z,11.07
2018-10-05T09:15:07.996Z,9.25
2018-10-05T09:17:41.697Z,14.17
2018-10-05T09:20:12.206Z,13.56
2018-10-05T09:22:40.287Z,10.60
2018-10-05T09:25:08.815Z,10.53
2018-10-05T09:27:37.419Z,11.23
2018-10-05T09:30:05.489Z,11.20
2018-10-05T09:32:33.575Z,10.55
2018-10-05T09:35:01.714Z,14.37
2018-10-05T09:37:29.931Z,11.93
2018-10-05T09:39:58.489Z,11.13
2018-10-05T09:42:28.656Z,10.35
2018-10-05T09:44:57.271Z,11.60
2018-10-05T09:47:25.378Z,10.63
2018-10-05T09:49:53.458Z,10.30
2018-10-05T09:52:21.565Z,8.37
2018-10-05T09:54:50.684Z,11.00
2018-10-05T09:57:19.421Z,9.20
2018-10-05T09:59:47.582Z,12.07
2018-10-05T10:02:21.180Z,11.93
2018-10-05T10:04:49.743Z,12.20
2018-10-05T10:07:19.667Z,12.13
2018-10-05T10:09:49.227Z,13.17
2018-10-05T10:12:18.305Z,12.60
2018-10-05T10:14:46.851Z,11.57
2018-10-05T10:17:14.960Z,13.27
2018-10-05T10:19:44.031Z,9.43
2018-10-05T10:22:12.196Z,14.47
2018-10-05T10:24:40.283Z,11.60
2018-10-05T10:27:09.360Z,9.95
2018-10-05T10:29:37.904Z,11.67
2018-10-05T10:32:06.455Z,14.40
2018-10-05T10:34:34.672Z,8.93
2018-10-05T10:37:02.660Z,10.37
2018-10-05T10:39:30.791Z,11.30
2018-10-05T10:41:59.340Z,10.40
2018-10-05T10:44:27.761Z,9.23
2018-10-05T10:46:58.813Z,10.33
2018-10-05T10:49:27.217Z,16.50
2018-10-05T10:51:55.334Z,14.53
2018-10-05T10:54:24.104Z,13.57
2018-10-05T10:56:52.204Z,13.57
2018-10-05T10:59:20.294Z,11.20
2018-10-05T11:01:48.746Z,11.47
2018-10-05T11:04:17.744Z,12.67
2018-10-05T11:06:45.824Z,12.97
2018-10-05T11:09:13.940Z,12.77
2018-10-05T11:11:42.246Z,10.30
2018-10-05T11:14:10.867Z,11.40
2018-10-05T11:16:40.117Z,10.07
2018-10-05T11:19:08.607Z,10.13
2018-10-05T11:21:36.724Z,11.37
2018-10-05T11:24:04.833Z,10.17
2018-10-05T11:26:32.947Z,10.07
2018-10-05T11:29:01.045Z,11.20
2018-10-05T11:31:29.604Z,8.20
2018-10-05T11:33:58.437Z,11.33
2018-10-05T11:36:26.731Z,11.57
2018-10-05T11:38:55.156Z,10.77
2018-10-05T11:41:23.247Z,11.03
2018-10-05T11:43:51.309Z,10.30
2018-10-05T11:46:19.685Z,12.77
2018-10-05T11:48:47.773Z,10.60
2018-10-05T11:51:15.859Z,9.73
2018-10-05T11:53:44.084Z,14.20
2018-10-05T11:56:12.165Z,11.13
2018-10-05T11:58:40.755Z,11.93
2018-10-05T12:01:11.480Z,16.03
2018-10-05T12:03:40.071Z,10.50
2018-10-05T12:06:12.088Z,10.13
2018-10-05T12:08:40.884Z,10.43
2018-10-05T12:11:09.569Z,11.03
2018-10-05T12:13:38.736Z,9.73
2018-10-05T12:16:06.836Z,11.03
2018-10-05T12:18:34.928Z,10.58
2018-10-05T12:21:03.044Z,11.80
2018-10-05T12:23:33.479Z,11.24
2018-10-05T12:26:18.595Z,12.00
2018-10-05T12:28:47.016Z,11.80
2018-10-05T12:31:25.159Z,14.20
2018-10-05T12:33:53.303Z,10.60
2018-10-05T12:36:21.363Z,9.50
2018-10-05T12:38:49.595Z,10.20
2018-10-05T12:41:17.742Z,10.97
2018-10-05T12:43:45.947Z,5.90
2018-10-05T12:46:14.099Z,8.23
2018-10-05T12:48:42.204Z,6.70
2018-10-05T12:51:11.140Z,7.37
2018-10-05T12:53:39.720Z,7.63
2018-10-05T12:56:08.537Z,6.50
2018-10-05T12:58:37.293Z,8.95
2018-10-05T13:01:06.731Z,11.03
2018-10-05T13:03:35.559Z,5.83
2018-10-05T13:06:03.651Z,6.87
2018-10-05T13:08:31.781Z,8.17
2018-10-05T13:11:00.755Z,7.23
2018-10-05T13:13:29.902Z,7.87
2018-10-05T13:15:59.456Z,9.40
2018-10-05T13:18:28.717Z,9.33
2018-10-05T13:20:56.808Z,8.57
2018-10-05T13:23:24.916Z,9.05
2018-10-05T13:25:53.615Z,6.10
2018-10-05T13:28:22.115Z,8.07
2018-10-05T13:30:50.278Z,9.53
2018-10-05T13:33:21.657Z,6.10
2018-10-05T13:35:54.456Z,7.90
2018-10-05T13:38:22.657Z,8.77
2018-10-05T13:40:51.955Z,6.93
2018-10-05T13:43:21.781Z,11.33
2018-10-05T13:45:53.389Z,13.23
2018-10-05T13:48:31.577Z,7.33
2018-10-05T13:51:02.045Z,6.53
2018-10-05T13:53:32.131Z,8.07
2018-10-05T13:56:02.940Z,8.70
2018-10-05T13:58:33.898Z,6.77
2018-10-05T14:01:03.738Z,11.03
2018-10-05T14:03:32.047Z,7.20
2018-10-05T14:06:02.310Z,8.30
2018-10-05T14:08:31.743Z,7.70
2018-10-05T14:11:00.435Z,8.28
2018-10-05T14:13:30.244Z,6.90
2018-10-05T14:16:02.693Z,6.97
2018-10-05T14:18:30.964Z,8.53
2018-10-05T14:21:01.016Z,8.08
2018-10-05T14:23:30.481Z,10.53
2018-10-05T14:25:59.173Z,8.33
2018-10-05T14:28:29.683Z,7.13
2018-10-05T14:30:59.626Z,8.23
2018-10-05T14:33:30.587Z,10.43
2018-10-05T14:36:01.302Z,6.83
2018-10-05T14:38:29.675Z,6.27
2018-10-05T14:40:58.420Z,8.97
2018-10-05T14:43:26.564Z,10.97
2018-10-05T14:45:55.349Z,7.27
2018-10-05T14:48:23.408Z,4.40
2018-10-05T14:50:51.583Z,7.17
2018-10-05T14:53:26.958Z,8.13
2018-10-05T14:56:07.236Z,7.03
2018-10-05T14:58:35.496Z,9.13
2018-10-05T15:01:17.651Z,7.37
2018-10-05T15:03:47.295Z,7.17
2018-10-05T15:06:16.168Z,7.37
2018-10-05T15:08:44.494Z,8.47
2018-10-05T15:11:15.411Z,8.83
2018-10-05T15:13:44.886Z,8.68
2018-10-05T15:16:14.288Z,9.73
2018-10-05T15:18:43.252Z,7.67
2018-10-05T15:21:12.938Z,9.90
2018-10-05T15:23:42.946Z,8.13
2018-10-05T15:26:12.144Z,9.00
2018-10-05T15:28:41.259Z,9.13
2018-10-05T15:31:09.400Z,8.20
2018-10-05T15:33:37.524Z,9.27
2018-10-05T15:36:16.407Z,10.08
2018-10-05T15:38:48.610Z,8.70
2018-10-05T15:41:16.748Z,9.97
2018-10-05T15:43:44.940Z,7.43
2018-10-05T15:46:23.215Z,9.03
2018-10-05T15:48:51.305Z,14.47
2018-10-05T15:51:19.454Z,113.00
2018-10-05T15:53:47.639Z,14.97
2018-10-05T15:56:15.730Z,8.25
2018-10-05T15:58:43.832Z,9.53
2018-10-05T16:01:17.943Z,10.60
2018-10-05T16:03:46.049Z,8.20
2018-10-05T16:06:15.133Z,10.70
2018-10-05T16:08:43.248Z,8.80
2018-10-05T16:11:13.448Z,8.17
2018-10-05T16:13:41.652Z,7.40
2018-10-05T16:16:10.924Z,11.97
2018-10-05T16:18:39.370Z,7.72
2018-10-05T16:21:07.527Z,11.20
2018-10-05T16:23:44.083Z,5.23
2018-10-05T16:26:12.227Z,8.83
2018-10-05T16:28:40.911Z,5.90
2018-10-05T16:31:09.542Z,7.57
2018-10-05T16:33:37.668Z,5.50
2018-10-05T16:36:05.762Z,6.57
2018-10-05T16:38:33.931Z,8.10
2018-10-05T16:41:02.069Z,6.53
2018-10-05T16:43:30.912Z,6.87
2018-10-05T16:45:59.076Z,8.33
2018-10-05T16:48:27.391Z,6.83
2018-10-05T16:50:55.515Z,7.95
2018-10-05T16:53:24.491Z,5.83
2018-10-05T16:55:52.685Z,7.70
2018-10-05T16:58:20.828Z,7.23
2018-10-05T17:00:49.379Z,15.13
2018-10-05T17:03:17.863Z,11.30
2018-10-05T17:05:46.336Z,11.40
2018-10-05T17:08:14.475Z,8.53
2018-10-05T17:10:42.742Z,6.77
2018-10-05T17:13:10.755Z,10.00
2018-10-05T17:15:39.114Z,8.70
2018-10-05T17:18:07.925Z,7.93
2018-10-05T17:20:54.718Z,7.77
2018-10-05T17:23:22.803Z,11.73
2018-10-05T17:25:50.946Z,8.20
2018-10-05T17:28:19.080Z,10.43
2018-10-05T17:30:47.273Z,10.83
2018-10-05T17:33:15.347Z,18.03
2018-10-05T17:38:36.727Z,8.50
2018-10-05T17:41:05.590Z,9.10
2018-10-05T17:43:34.586Z,7.97
2018-10-05T17:46:04.655Z,13.83
2018-10-05T17:48:33.500Z,9.13
2018-10-05T17:51:08.779Z,9.83
2018-10-05T17:53:37.764Z,9.38
2018-10-05T17:56:08.120Z,8.27
2018-10-05T17:58:36.678Z,7.37
2018-10-05T18:01:36.622Z,8.60
2018-10-05T18:04:05.926Z,9.83
2018-10-05T18:06:35.020Z,9.33
